createdAt,value
2018-03-01T00:00:20.056Z,11.80
2018-03-01T00:02:47.357Z,9.32
2018-03-01T00:05:14.620Z,13.90
2018-03-01T00:07:41.889Z,9.43
2018-03-01T00:10:09.173Z,11.85
2018-03-01T00:12:36.441Z,9.20
2018-03-01T00:15:03.711Z,12.60
2018-03-01T00:17:31.004Z,10.07
2018-03-01T00:19:58.292Z,11.75
2018-03-01T00:22:31.403Z,14.15
2018-03-01T00:24:58.690Z,9.23
2018-03-01T00:27:25.952Z,11.88
2018-03-01T00:29:53.250Z,7.68
2018-03-01T00:32:20.525Z,13.25
2018-03-01T00:34:47.790Z,6.28
2018-03-01T00:37:15.078Z,11.68
2018-03-01T00:39:42.342Z,8.45
2018-03-01T00:42:09.608Z,11.75
2018-03-01T00:44:36.917Z,13.30
2018-03-01T00:47:04.179Z,11.50
2018-03-01T00:49:31.466Z,13.90
2018-03-01T00:51:58.731Z,11.85
2018-03-01T00:54:26.028Z,11.27
2018-03-01T00:56:53.292Z,14.73
2018-03-01T00:59:20.602Z,12.70
2018-03-01T01:01:47.870Z,10.73
2018-03-01T01:04:15.132Z,10.82
2018-03-01T01:06:42.420Z,13.82
2018-03-01T01:09:09.689Z,7.53
2018-03-01T01:11:36.980Z,12.73
2018-03-01T01:14:04.246Z,10.85
2018-03-01T01:16:31.527Z,9.98
2018-03-01T01:18:58.821Z,12.20
2018-03-01T01:21:26.097Z,12.32
2018-03-01T01:23:53.385Z,13.48
2018-03-01T01:26:20.652Z,11.95
2018-03-01T01:28:47.921Z,11.80
2018-03-01T01:31:15.271Z,10.02
2018-03-01T01:33:42.480Z,12.93
2018-03-01T01:36:09.769Z,12.15
2018-03-01T01:38:37.041Z,12.25
2018-03-01T01:41:04.340Z,12.45
2018-03-01T01:43:31.618Z,11.05
2018-03-01T01:45:58.881Z,12.82
2018-03-01T01:48:26.205Z,13.50
2018-03-01T01:50:59.333Z,10.73
2018-03-01T01:53:26.615Z,12.48
2018-03-01T01:55:53.877Z,8.52
2018-03-01T01:58:21.184Z,13.00
2018-03-01T02:00:48.429Z,11.40
2018-03-01T02:03:15.724Z,14.13
2018-03-01T02:05:42.993Z,12.52
2018-03-01T02:08:10.288Z,10.20
2018-03-01T02:10:37.560Z,14.10
2018-03-01T02:13:04.824Z,11.27
2018-03-01T02:15:32.117Z,13.52
2018-03-01T02:17:59.389Z,11.88
2018-03-01T02:20:26.680Z,9.10
2018-03-01T02:22:53.974Z,12.75
2018-03-01T02:25:21.241Z,10.93
2018-03-01T02:27:48.515Z,11.85
2018-03-01T02:30:28.725Z,11.27
2018-03-01T02:32:55.989Z,12.25
2018-03-01T02:35:23.261Z,11.05
2018-03-01T02:37:50.568Z,13.30
2018-03-01T02:40:17.849Z,12.98
2018-03-01T02:42:45.123Z,8.70
2018-03-01T02:45:12.405Z,12.48
2018-03-01T02:47:39.668Z,13.48
2018-03-01T02:50:06.973Z,10.27
2018-03-01T02:52:34.241Z,10.65
2018-03-01T02:55:01.505Z,13.45
2018-03-01T02:57:28.980Z,12.02
2018-03-01T02:59:56.241Z,13.70
2018-03-01T03:02:23.538Z,4.32
2018-03-01T03:04:50.788Z,13.32
2018-03-01T03:07:18.073Z,10.10
2018-03-01T03:09:45.337Z,11.32
2018-03-01T03:12:12.625Z,11.18
2018-03-01T03:14:39.905Z,9.77
2018-03-01T03:17:07.175Z,12.30
2018-03-01T03:19:34.464Z,13.00
2018-03-01T03:22:01.744Z,12.75
2018-03-01T03:24:29.030Z,9.80
2018-03-01T03:26:56.293Z,12.68
2018-03-01T03:29:23.585Z,8.52
2018-03-01T03:31:50.847Z,8.40
2018-03-01T03:34:18.137Z,11.82
2018-03-01T03:36:45.413Z,11.80
2018-03-01T03:39:12.686Z,11.75
2018-03-01T03:41:39.982Z,12.73
2018-03-01T03:44:07.244Z,10.00
2018-03-01T03:46:34.535Z,11.88
2018-03-01T03:49:01.814Z,9.65
2018-03-01T03:51:29.098Z,9.05
2018-03-01T03:53:56.367Z,11.02
2018-03-01T03:56:23.665Z,12.98
2018-03-01T03:58:50.932Z,11.75
2018-03-01T04:01:18.196Z,12.05
2018-03-01T04:03:45.488Z,8.18
2018-03-01T04:06:12.753Z,12.37
2018-03-01T04:08:40.024Z,11.55
2018-03-01T04:11:07.321Z,12.82
2018-03-01T04:13:34.616Z,13.10
2018-03-01T04:16:01.888Z,12.52
2018-03-01T04:18:29.180Z,12.70
2018-03-01T04:20:56.484Z,10.13
2018-03-01T04:23:23.748Z,7.32
2018-03-01T04:25:51.053Z,10.05
2018-03-01T04:28:18.337Z,12.80
2018-03-01T04:30:45.607Z,12.32
2018-03-01T04:33:12.889Z,10.20
2018-03-01T04:35:40.177Z,8.30
2018-03-01T04:38:07.445Z,7.85
2018-03-01T04:40:34.733Z,11.00
2018-03-01T04:43:02.026Z,10.95
2018-03-01T04:45:29.290Z,11.20
2018-03-01T04:47:56.593Z,12.02
2018-03-01T04:50:23.856Z,12.65
2018-03-01T04:52:51.149Z,10.60
2018-03-01T04:55:18.416Z,10.57
2018-03-01T04:57:45.717Z,11.10
2018-03-01T05:00:13.050Z,9.85
2018-03-01T05:02:40.302Z,6.53
2018-03-01T05:05:07.584Z,9.93
2018-03-01T05:07:34.848Z,10.15
2018-03-01T05:10:02.109Z,11.63
2018-03-01T05:12:29.413Z,12.73
2018-03-01T05:14:56.680Z,10.75
2018-03-01T05:17:23.976Z,15.27
2018-03-01T05:19:51.244Z,13.90
2018-03-01T05:22:18.511Z,16.83
2018-03-01T05:24:45.799Z,14.13
2018-03-01T05:27:13.084Z,11.18
2018-03-01T05:29:40.352Z,12.95
2018-03-01T05:32:07.761Z,10.35
2018-03-01T05:34:35.027Z,12.20
2018-03-01T05:37:02.299Z,11.05
2018-03-01T05:39:29.586Z,10.57
2018-03-01T05:41:56.853Z,11.52
2018-03-01T05:44:24.125Z,12.63
2018-03-01T05:46:51.416Z,12.85
2018-03-01T05:49:18.708Z,9.10
2018-03-01T05:51:46.008Z,10.50
2018-03-01T05:54:13.272Z,11.63
2018-03-01T05:56:40.547Z,10.68
2018-03-01T05:59:07.842Z,12.73
2018-03-01T06:01:35.104Z,11.40
2018-03-01T06:04:02.399Z,14.00
2018-03-01T06:06:29.660Z,10.60
2018-03-01T06:08:56.933Z,11.68
2018-03-01T06:11:24.232Z,10.50
2018-03-01T06:13:51.519Z,12.93
2018-03-01T06:16:18.920Z,8.15
2018-03-01T06:18:46.189Z,11.25
2018-03-01T06:21:13.450Z,9.68
2018-03-01T06:23:40.753Z,11.35
2018-03-01T06:26:08.017Z,10.85
2018-03-01T06:28:35.277Z,9.18
2018-03-01T06:31:02.572Z,10.10
2018-03-01T06:33:29.877Z,10.63
2018-03-01T06:35:57.149Z,11.68
2018-03-01T06:38:24.413Z,7.70
2018-03-01T06:40:51.692Z,9.82
2018-03-01T06:43:18.961Z,11.10
2018-03-01T06:45:46.225Z,10.80
2018-03-01T06:48:13.525Z,9.75
2018-03-01T06:50:40.793Z,11.07
2018-03-01T06:53:08.080Z,10.30
2018-03-01T06:55:35.345Z,10.25
2018-03-01T06:58:02.642Z,9.95
2018-03-01T07:00:29.910Z,9.70
2018-03-01T07:02:57.193Z,9.88
2018-03-01T07:05:24.461Z,9.23
2018-03-01T07:07:51.740Z,10.98
2018-03-01T07:10:19.009Z,10.00
2018-03-01T07:12:46.287Z,11.95
2018-03-01T07:15:13.572Z,8.80
2018-03-01T07:17:40.837Z,7.28
2018-03-01T07:20:08.130Z,11.30
2018-03-01T07:22:35.454Z,12.63
2018-03-01T07:25:02.711Z,11.00
2018-03-01T07:27:30.015Z,7.75
2018-03-01T07:29:57.282Z,11.93
2018-03-01T07:32:24.548Z,5.72
2018-03-01T07:34:51.840Z,9.90
2018-03-01T07:37:19.128Z,10.48
2018-03-01T07:39:47.104Z,10.90
2018-03-01T07:42:14.392Z,9.88
2018-03-01T07:44:41.685Z,12.27
2018-03-01T07:47:08.953Z,11.30
2018-03-01T07:49:36.264Z,10.82
2018-03-01T07:52:03.520Z,11.65
2018-03-01T07:54:30.813Z,9.00
2018-03-01T07:56:58.077Z,10.40
2018-03-01T07:59:25.377Z,9.48
2018-03-01T08:01:52.645Z,10.20
2018-03-01T08:04:19.920Z,9.05
2018-03-01T08:06:47.192Z,9.30
2018-03-01T08:09:14.460Z,9.02
2018-03-01T08:11:41.726Z,10.88
2018-03-01T08:14:09.020Z,12.82
2018-03-01T08:16:36.309Z,8.05
2018-03-01T08:19:03.572Z,10.30
2018-03-01T08:21:30.864Z,7.78
2018-03-01T08:23:58.136Z,9.07
2018-03-01T08:26:25.401Z,8.00
2018-03-01T08:28:52.748Z,8.50
2018-03-01T08:31:20.033Z,10.68
2018-03-01T08:33:47.299Z,9.45
2018-03-01T08:36:14.580Z,7.93
2018-03-01T08:38:41.841Z,6.50
2018-03-01T08:41:09.135Z,8.82
2018-03-01T08:43:36.404Z,9.30
2018-03-01T08:46:03.670Z,7.55
2018-03-01T08:48:30.970Z,6.55
2018-03-01T08:50:58.232Z,7.55
2018-03-01T08:53:25.509Z,10.32
2018-03-01T08:55:52.810Z,8.10
2018-03-01T08:58:20.070Z,8.52
2018-03-01T09:00:47.334Z,9.27
2018-03-01T09:03:14.624Z,8.60
2018-03-01T09:05:41.886Z,9.40
2018-03-01T09:08:09.184Z,10.13
2018-03-01T09:10:36.520Z,7.70
2018-03-01T09:13:03.809Z,8.52
2018-03-01T09:15:31.078Z,8.82
2018-03-01T09:17:58.372Z,6.78
2018-03-01T09:20:25.685Z,9.48
2018-03-01T09:22:52.956Z,8.18
2018-03-01T09:25:20.252Z,7.03
2018-03-01T09:27:47.518Z,8.30
2018-03-01T09:30:14.782Z,9.50
2018-03-01T09:32:42.075Z,9.82
2018-03-01T09:35:09.344Z,7.20
2018-03-01T09:37:36.640Z,9.23
2018-03-01T09:40:03.941Z,9.18
2018-03-01T09:42:31.209Z,6.50
2018-03-01T09:44:58.477Z,9.40
2018-03-01T09:47:25.764Z,10.65
2018-03-01T09:49:53.068Z,9.63
2018-03-01T09:52:20.337Z,10.25
2018-03-01T09:54:47.884Z,8.10
2018-03-01T09:57:15.173Z,7.65
2018-03-01T09:59:42.446Z,8.90
2018-03-01T10:02:09.719Z,10.50
2018-03-01T10:04:37.004Z,6.00
2018-03-01T10:07:04.304Z,9.52
2018-03-01T10:09:31.568Z,7.82
2018-03-01T10:11:58.839Z,8.00
2018-03-01T10:14:26.130Z,9.30
2018-03-01T10:16:53.685Z,8.70
2018-03-01T10:19:20.963Z,8.23
2018-03-01T10:21:48.221Z,8.80
2018-03-01T10:24:15.504Z,8.60
2018-03-01T10:26:42.768Z,9.30
2018-03-01T10:29:10.042Z,9.53
2018-03-01T10:31:37.326Z,9.83
2018-03-01T10:34:04.592Z,8.97
2018-03-01T10:36:31.877Z,8.50
2018-03-01T10:38:59.157Z,10.37
2018-03-01T10:41:26.454Z,9.83
2018-03-01T10:43:53.737Z,10.50
2018-03-01T10:46:20.997Z,8.27
2018-03-01T10:48:49.345Z,9.60
2018-03-01T10:51:16.875Z,9.97
2018-03-01T10:53:44.136Z,6.83
2018-03-01T10:56:11.431Z,10.37
2018-03-01T10:58:38.713Z,9.27
2018-03-01T11:01:05.969Z,7.87
2018-03-01T11:03:33.259Z,9.27
2018-03-01T11:06:00.522Z,9.90
2018-03-01T11:08:27.817Z,10.30
2018-03-01T11:10:55.102Z,8.47
2018-03-01T11:13:22.356Z,6.70
2018-03-01T11:15:49.645Z,9.87
2018-03-01T11:18:16.913Z,9.10
2018-03-01T11:20:44.205Z,8.20
2018-03-01T11:23:11.483Z,9.90
2018-03-01T11:25:38.761Z,9.40
2018-03-01T11:28:06.028Z,9.20
2018-03-01T11:30:33.297Z,9.60
2018-03-01T11:33:00.581Z,11.80
2018-03-01T11:35:27.852Z,9.30
2018-03-01T11:37:55.107Z,10.80
2018-03-01T11:40:22.393Z,7.37
2018-03-01T11:42:49.654Z,8.47
2018-03-01T11:45:17.014Z,9.97
2018-03-01T11:47:44.261Z,10.47
2018-03-01T11:50:11.551Z,11.27
2018-03-01T11:52:38.848Z,11.73
2018-03-01T11:55:06.149Z,8.30
2018-03-01T11:57:33.407Z,7.40
2018-03-01T12:00:00.677Z,8.70
2018-03-01T12:02:27.956Z,6.87
2018-03-01T12:04:55.219Z,10.23
2018-03-01T12:07:22.495Z,7.70
2018-03-01T12:09:49.754Z,9.20
2018-03-01T12:12:17.015Z,9.23
2018-03-01T12:14:44.301Z,8.70
2018-03-01T12:17:11.599Z,9.23
2018-03-01T12:19:38.851Z,8.53
2018-03-01T12:22:06.178Z,10.07
2018-03-01T12:24:33.418Z,9.57
2018-03-01T12:27:00.680Z,9.03
2018-03-01T12:29:27.970Z,8.57
2018-03-01T12:31:55.242Z,9.30
2018-03-01T12:34:22.501Z,9.13
2018-03-01T12:36:49.859Z,10.20
2018-03-01T12:39:17.174Z,10.53
2018-03-01T12:41:44.476Z,9.13
2018-03-01T12:44:11.811Z,8.30
2018-03-01T12:46:39.089Z,9.10
2018-03-01T12:49:06.386Z,9.90
2018-03-01T12:51:33.673Z,5.70
2018-03-01T12:54:01.242Z,9.90
2018-03-01T12:56:28.827Z,9.80
2018-03-01T12:58:56.145Z,8.40
2018-03-01T13:01:23.578Z,9.07
2018-03-01T13:03:50.985Z,8.10
2018-03-01T13:06:18.269Z,9.70
2018-03-01T13:08:45.537Z,9.97
2018-03-01T13:11:12.825Z,7.90
2018-03-01T13:13:40.100Z,13.33
2018-03-01T13:16:07.358Z,12.30
2018-03-01T13:18:34.655Z,12.10
2018-03-01T13:21:01.914Z,12.43
2018-03-01T13:23:29.202Z,9.93
2018-03-01T13:25:56.461Z,10.57
2018-03-01T13:28:23.760Z,10.13
2018-03-01T13:30:53.569Z,9.20
2018-03-01T13:33:21.181Z,9.10
2018-03-01T13:35:58.344Z,10.67
2018-03-01T13:38:25.629Z,9.40
2018-03-01T13:40:52.933Z,11.30
2018-03-01T13:43:20.231Z,9.77
2018-03-01T13:45:47.514Z,9.33
2018-03-01T13:48:14.780Z,9.10
2018-03-01T13:50:42.050Z,10.43
2018-03-01T13:53:09.336Z,10.00
2018-03-01T13:55:36.599Z,8.77
2018-03-01T13:58:03.885Z,9.20
2018-03-01T14:00:31.179Z,9.10
2018-03-01T14:02:58.468Z,10.70
2018-03-01T14:05:25.762Z,9.60
2018-03-01T14:07:56.973Z,10.10
2018-03-01T14:10:24.256Z,9.73
2018-03-01T14:12:54.193Z,11.73
2018-03-01T14:15:21.461Z,10.83
2018-03-01T14:17:50.669Z,10.40
2018-03-01T14:20:23.628Z,8.77
2018-03-01T14:22:56.639Z,10.10
2018-03-01T14:25:24.422Z,10.47
2018-03-01T14:27:57.462Z,10.10
2018-03-01T14:30:24.761Z,9.47
2018-03-01T14:32:52.017Z,9.93
2018-03-01T14:35:19.317Z,10.00
2018-03-01T14:37:46.609Z,10.13
2018-03-01T14:40:13.865Z,9.77
2018-03-01T14:42:41.177Z,10.50
2018-03-01T14:45:08.445Z,10.53
2018-03-01T14:47:35.708Z,9.20
2018-03-01T14:50:02.996Z,10.03
2018-03-01T14:52:30.255Z,9.60
2018-03-01T14:54:57.544Z,9.23
2018-03-01T14:57:24.800Z,9.43
2018-03-01T14:59:52.097Z,10.10
2018-03-01T15:02:19.366Z,11.70
2018-03-01T15:04:46.714Z,8.83
2018-03-01T15:07:13.955Z,10.30
2018-03-01T15:09:41.219Z,11.10
2018-03-01T15:12:08.513Z,10.90
2018-03-01T15:14:35.797Z,12.43
2018-03-01T15:17:03.089Z,10.33
2018-03-01T15:19:30.357Z,11.23
2018-03-01T15:21:57.646Z,10.63
2018-03-01T15:24:24.905Z,8.90
2018-03-01T15:26:52.208Z,11.03
2018-03-01T15:29:19.500Z,11.83
2018-03-01T15:31:46.798Z,9.70
2018-03-01T15:34:14.064Z,11.23
2018-03-01T15:36:41.362Z,9.30
2018-03-01T15:39:08.625Z,8.93
2018-03-01T15:41:35.954Z,9.80
2018-03-01T15:44:03.237Z,11.23
2018-03-01T15:46:30.503Z,10.60
2018-03-01T15:48:57.795Z,9.03
2018-03-01T15:51:25.054Z,8.53
2018-03-01T15:53:52.340Z,11.40
2018-03-01T15:56:19.608Z,11.80
2018-03-01T15:58:46.949Z,10.93
2018-03-01T16:01:14.177Z,11.83
2018-03-01T16:03:41.481Z,10.10
2018-03-01T16:06:08.774Z,9.93
2018-03-01T16:08:36.102Z,10.53
2018-03-01T16:11:03.389Z,10.27
2018-03-01T16:13:30.668Z,9.20
2018-03-01T16:15:57.922Z,11.07
2018-03-01T16:18:25.206Z,10.80
2018-03-01T16:20:52.761Z,11.30
2018-03-01T16:23:20.057Z,12.00
2018-03-01T16:25:47.352Z,11.47
2018-03-01T16:28:14.629Z,10.33
2018-03-01T16:30:47.805Z,19.20
2018-03-01T16:33:15.107Z,30.87
2018-03-01T16:35:42.386Z,15.77
2018-03-01T16:38:09.678Z,15.10
2018-03-01T16:40:36.948Z,31.40
2018-03-01T16:43:04.446Z,35.33
2018-03-01T16:45:31.761Z,17.07
2018-03-01T16:47:59.073Z,15.70
2018-03-01T16:50:26.346Z,16.43
2018-03-01T16:52:53.623Z,14.80
2018-03-01T16:55:20.897Z,17.30
2018-03-01T16:57:49.042Z,21.53
2018-03-01T17:00:16.335Z,20.13
2018-03-01T17:02:43.627Z,14.87
2018-03-01T17:05:10.897Z,18.93
2018-03-01T17:07:38.186Z,7.20
2018-03-01T17:10:05.480Z,17.93
2018-03-01T17:12:32.749Z,16.50
2018-03-01T17:15:00.058Z,20.50
2018-03-01T17:17:27.320Z,16.07
2018-03-01T17:19:54.615Z,12.47
2018-03-01T17:22:21.878Z,17.47
2018-03-01T17:24:49.178Z,11.20
2018-03-01T17:27:16.446Z,19.87
2018-03-01T17:29:43.736Z,13.40
2018-03-01T17:32:11.017Z,10.47
2018-03-01T17:34:38.308Z,16.70
2018-03-01T17:37:05.602Z,17.90
2018-03-01T17:39:32.869Z,19.10
2018-03-01T17:42:00.162Z,19.50
2018-03-01T17:44:27.428Z,18.90
2018-03-01T17:46:54.728Z,12.37
2018-03-01T17:49:22.012Z,14.40
2018-03-01T17:51:49.272Z,26.60
2018-03-01T17:54:16.568Z,18.30
2018-03-01T17:56:43.829Z,15.20
2018-03-01T17:59:11.132Z,16.77
2018-03-01T18:01:38.396Z,10.60
2018-03-01T18:04:05.683Z,14.13
2018-03-01T18:06:32.972Z,13.13
2018-03-01T18:09:00.268Z,12.50
2018-03-01T18:11:27.537Z,14.50
2018-03-01T18:13:54.829Z,13.70
2018-03-01T18:16:22.105Z,12.60
2018-03-01T18:18:49.409Z,12.50
2018-03-01T18:21:16.678Z,12.10
2018-03-01T18:23:43.940Z,12.60
2018-03-01T18:26:11.229Z,12.07
2018-03-01T18:28:38.559Z,12.53
2018-03-01T18:31:05.802Z,11.70
2018-03-01T18:33:33.070Z,11.17
2018-03-01T18:36:00.358Z,12.30
2018-03-01T18:38:27.629Z,13.10
2018-03-01T18:40:54.920Z,12.20
2018-03-01T18:43:22.189Z,11.10
2018-03-01T18:45:49.497Z,13.53
2018-03-01T18:48:16.770Z,11.60
2018-03-01T18:50:44.037Z,15.03
2018-03-01T18:53:11.346Z,12.03
2018-03-01T18:55:38.608Z,14.43
2018-03-01T18:58:05.878Z,13.20
2018-03-01T19:00:33.293Z,13.52
2018-03-01T19:03:00.565Z,13.90
2018-03-01T19:05:27.853Z,13.60
2018-03-01T19:07:55.153Z,13.30
2018-03-01T19:10:22.422Z,13.60
2018-03-01T19:12:49.709Z,14.40
2018-03-01T19:15:16.987Z,13.97
2018-03-01T19:17:44.264Z,15.10
2018-03-01T19:20:11.652Z,15.73
2018-03-01T19:22:39.010Z,12.60
2018-03-01T19:25:06.308Z,13.47
2018-03-01T19:27:33.572Z,12.50
2018-03-01T19:30:00.868Z,15.90
2018-03-01T19:32:28.136Z,13.37
2018-03-01T19:34:55.433Z,16.13
2018-03-01T19:37:23.314Z,18.63
2018-03-01T19:39:50.559Z,15.20
2018-03-01T19:42:17.849Z,18.00
2018-03-01T19:44:45.117Z,14.53
2018-03-01T19:47:12.389Z,13.77
2018-03-01T19:49:39.681Z,13.27
2018-03-01T19:52:06.996Z,17.70
2018-03-01T19:54:34.252Z,18.80
2018-03-01T19:57:01.533Z,18.20
2018-03-01T19:59:29.087Z,14.17
2018-03-01T20:01:56.345Z,14.97
2018-03-01T20:04:23.609Z,16.00
2018-03-01T20:06:50.904Z,16.53
2018-03-01T20:09:18.181Z,16.53
2018-03-01T20:11:45.473Z,16.70
2018-03-01T20:14:12.766Z,17.63
2018-03-01T20:16:40.038Z,15.63
2018-03-01T20:19:07.327Z,18.23
2018-03-01T20:21:34.614Z,15.90
2018-03-01T20:24:01.903Z,16.27
2018-03-01T20:26:29.177Z,17.17
2018-03-01T20:28:56.472Z,16.97
2018-03-01T20:31:23.744Z,14.60
2018-03-01T20:33:51.045Z,16.00
2018-03-01T20:36:18.321Z,28.30
2018-03-01T20:38:45.580Z,21.53
2018-03-01T20:41:12.877Z,17.63
2018-03-01T20:43:40.141Z,15.60
2018-03-01T20:46:07.436Z,15.40
2018-03-01T20:48:34.704Z,17.40
2018-03-01T20:51:02.022Z,14.87
2018-03-01T20:53:29.277Z,14.50
2018-03-01T20:55:56.541Z,18.67
2018-03-01T20:58:23.832Z,13.33
2018-03-01T21:00:51.098Z,18.60
2018-03-01T21:03:18.392Z,13.50
2018-03-01T21:05:45.661Z,16.70
2018-03-01T21:08:12.973Z,15.50
2018-03-01T21:10:40.245Z,14.80
2018-03-01T21:13:07.505Z,17.67
2018-03-01T21:15:34.800Z,18.00
2018-03-01T21:18:02.097Z,17.10
2018-03-01T21:20:29.393Z,18.23
2018-03-01T21:22:56.650Z,17.83
2018-03-01T21:25:23.942Z,16.07
2018-03-01T21:27:51.205Z,18.40
2018-03-01T21:30:18.501Z,16.70
2018-03-01T21:32:45.781Z,19.10
2018-03-01T21:35:13.072Z,18.50
2018-03-01T21:37:40.323Z,19.17
2018-03-01T21:40:07.618Z,19.20
2018-03-01T21:42:34.889Z,19.90
2018-03-01T21:45:02.187Z,18.00
2018-03-01T21:47:29.468Z,17.80
2018-03-01T21:49:56.739Z,19.33
2018-03-01T21:52:24.033Z,19.60
2018-03-01T21:54:51.298Z,22.27
2018-03-01T21:57:18.593Z,20.83
2018-03-01T21:59:45.882Z,20.17
2018-03-01T22:02:13.170Z,21.07
2018-03-01T22:04:40.464Z,19.53
2018-03-01T22:07:07.718Z,19.17
2018-03-01T22:09:35.021Z,21.67
2018-03-01T22:12:02.301Z,20.20
2018-03-01T22:14:29.601Z,17.13
2018-03-01T22:16:56.891Z,18.03
2018-03-01T22:19:24.162Z,20.40
2018-03-01T22:21:51.417Z,17.27
2018-03-01T22:24:18.716Z,20.43
2018-03-01T22:26:45.980Z,22.00
2018-03-01T22:29:13.254Z,22.90
2018-03-01T22:31:40.544Z,23.73
2018-03-01T22:34:07.820Z,23.90
2018-03-01T22:36:35.116Z,20.30
2018-03-01T22:39:02.380Z,20.70
2018-03-01T22:41:29.650Z,19.57
2018-03-01T22:43:56.941Z,25.07
2018-03-01T22:46:24.209Z,23.40
2018-03-01T22:48:51.500Z,24.33
2018-03-01T22:51:18.769Z,22.43
2018-03-01T22:53:46.061Z,23.20
2018-03-01T22:56:13.376Z,23.37
2018-03-01T22:58:40.625Z,19.83
2018-03-01T23:01:07.885Z,22.30
2018-03-01T23:03:35.188Z,23.87
2018-03-01T23:06:02.461Z,19.43
2018-03-01T23:08:29.729Z,22.70
2018-03-01T23:10:57.018Z,23.43
2018-03-01T23:13:24.281Z,21.87
2018-03-01T23:15:51.545Z,23.93
2018-03-01T23:18:18.834Z,21.40
2018-03-01T23:20:46.117Z,21.90
2018-03-01T23:23:13.408Z,21.20
2018-03-01T23:25:40.674Z,21.13
2018-03-01T23:28:07.971Z,20.67
2018-03-01T23:30:35.240Z,23.23
2018-03-01T23:33:02.506Z,22.60
2018-03-01T23:35:29.788Z,20.07
2018-03-01T23:37:57.060Z,19.30
2018-03-01T23:40:24.345Z,21.20
2018-03-01T23:42:51.625Z,20.23
2018-03-01T23:45:18.876Z,23.00
2018-03-01T23:47:46.175Z,23.97
2018-03-01T23:50:13.440Z,23.10
2018-03-01T23:52:40.728Z,20.13
2018-03-01T23:55:07.988Z,23.40
2018-03-01T23:57:35.285Z,21.23
